createdAt,value
2022-11-22T00:00:34.009Z,0.94
2022-11-22T00:01:34.068Z,0.91
2022-11-22T00:02:34.085Z,1.00
2022-11-22T00:03:33.986Z,0.90
2022-11-22T00:04:33.985Z,0.79
2022-11-22T00:05:33.977Z,0.83
2022-11-22T00:06:33.963Z,0.83
2022-11-22T00:07:34.007Z,0.91
2022-11-22T00:08:33.975Z,0.78
2022-11-22T00:09:33.945Z,0.79
2022-11-22T00:10:33.950Z,0.86
2022-11-22T00:11:33.939Z,0.73
2022-11-22T00:12:33.928Z,0.90
2022-11-22T00:13:33.907Z,0.90
2022-11-22T00:14:33.899Z,0.87
2022-11-22T00:15:33.896Z,0.84
2022-11-22T00:16:33.884Z,0.86
2022-11-22T00:17:33.887Z,0.91
2022-11-22T00:18:33.875Z,0.80
2022-11-22T00:19:33.870Z,0.79
2022-11-22T00:20:33.857Z,1.02
2022-11-22T00:21:33.859Z,0.88
2022-11-22T00:22:33.842Z,0.86
2022-11-22T00:23:33.846Z,0.93
2022-11-22T00:24:33.849Z,1.00
2022-11-22T00:25:33.826Z,1.02
2022-11-22T00:26:33.814Z,0.96
2022-11-22T00:27:33.815Z,0.88
2022-11-22T00:28:33.800Z,0.75
2022-11-22T00:29:33.797Z,0.90
2022-11-22T00:30:33.784Z,0.80
2022-11-22T00:31:33.778Z,0.87
2022-11-22T00:32:33.771Z,1.00
2022-11-22T00:33:33.770Z,0.90
2022-11-22T00:34:33.753Z,0.88
2022-11-22T00:35:33.747Z,0.79
2022-11-22T00:36:33.741Z,0.91
2022-11-22T00:37:33.735Z,0.65
2022-11-22T00:38:33.725Z,0.86
2022-11-22T00:39:33.722Z,0.76
2022-11-22T00:40:33.731Z,0.88
2022-11-22T00:41:33.705Z,0.80
2022-11-22T00:42:33.697Z,0.80
2022-11-22T00:43:33.697Z,0.88
2022-11-22T00:44:33.682Z,0.86
2022-11-22T00:45:33.676Z,0.84
2022-11-22T00:46:33.665Z,0.93
2022-11-22T00:47:33.665Z,0.83
2022-11-22T00:48:33.651Z,0.87
2022-11-22T00:49:33.646Z,0.91
2022-11-22T00:50:33.633Z,0.88
2022-11-22T00:51:33.633Z,1.02
2022-11-22T00:52:33.624Z,0.98
2022-11-22T00:53:33.618Z,0.88
2022-11-22T00:54:33.608Z,0.87
2022-11-22T00:55:33.602Z,0.86
2022-11-22T00:56:33.622Z,0.90
2022-11-22T00:57:33.585Z,0.96
2022-11-22T00:58:33.582Z,0.96
2022-11-22T00:59:33.572Z,1.05
2022-11-22T01:00:33.656Z,0.98
2022-11-22T01:01:33.641Z,1.05
2022-11-22T01:02:33.548Z,1.05
2022-11-22T01:03:33.543Z,0.98
2022-11-22T01:04:33.539Z,1.06
2022-11-22T01:05:33.531Z,0.94
2022-11-22T01:06:33.525Z,0.97
2022-11-22T01:07:33.563Z,0.88
2022-11-22T01:08:33.504Z,0.83
2022-11-22T01:09:33.496Z,0.94
2022-11-22T01:10:33.488Z,1.04
2022-11-22T01:11:33.485Z,1.00
2022-11-22T01:12:33.509Z,1.06
2022-11-22T01:13:33.464Z,1.15
2022-11-22T01:14:33.455Z,1.09
2022-11-22T01:15:33.458Z,1.04
2022-11-22T01:16:33.446Z,1.09
2022-11-22T01:17:33.442Z,1.14
2022-11-22T01:18:33.429Z,1.22
2022-11-22T01:19:33.420Z,1.06
2022-11-22T01:20:33.412Z,1.00
2022-11-22T01:21:33.407Z,1.08
2022-11-22T01:22:33.399Z,1.08
2022-11-22T01:23:33.396Z,1.11
2022-11-22T01:24:33.386Z,1.15
2022-11-22T01:25:33.383Z,1.12
2022-11-22T01:26:33.368Z,1.18
2022-11-22T01:27:33.365Z,1.24
2022-11-22T01:28:33.408Z,1.27
2022-11-22T01:29:33.347Z,1.37
2022-11-22T01:30:33.339Z,1.44
2022-11-22T01:31:33.336Z,1.29
2022-11-22T01:32:33.327Z,1.22
2022-11-22T01:33:33.320Z,1.29
2022-11-22T01:34:33.315Z,1.06
2022-11-22T01:35:33.310Z,1.14
2022-11-22T01:36:33.295Z,1.08
2022-11-22T01:37:33.290Z,1.00
2022-11-22T01:38:33.278Z,1.09
2022-11-22T01:39:33.335Z,1.22
2022-11-22T01:40:33.266Z,1.14
2022-11-22T01:41:33.257Z,1.06
2022-11-22T01:42:33.247Z,1.00
2022-11-22T01:43:33.247Z,1.08
2022-11-22T01:44:33.260Z,1.15
2022-11-22T01:45:33.233Z,1.30
2022-11-22T01:46:33.220Z,1.16
2022-11-22T01:47:33.217Z,1.22
2022-11-22T01:48:33.216Z,1.08
2022-11-22T01:49:33.202Z,1.05
2022-11-22T01:50:33.191Z,1.02
2022-11-22T01:51:33.188Z,1.06
2022-11-22T01:52:33.199Z,1.16
2022-11-22T01:53:33.174Z,1.18
2022-11-22T01:54:33.160Z,1.18
2022-11-22T01:55:33.159Z,1.18
2022-11-22T01:56:33.147Z,1.14
2022-11-22T01:57:33.142Z,1.18
2022-11-22T01:58:33.134Z,1.09
2022-11-22T01:59:33.196Z,1.04
2022-11-22T02:00:33.145Z,1.20
2022-11-22T02:01:33.275Z,1.29
2022-11-22T02:02:33.101Z,1.32
2022-11-22T02:03:33.099Z,1.33
2022-11-22T02:04:33.088Z,1.32
2022-11-22T02:05:33.086Z,1.41
2022-11-22T02:06:33.073Z,1.23
2022-11-22T02:07:33.118Z,1.06
2022-11-22T02:08:33.061Z,1.08
2022-11-22T02:09:33.227Z,1.08
2022-11-22T02:10:33.059Z,1.32
2022-11-22T02:11:34.387Z,1.33
2022-11-22T02:12:33.029Z,1.24
2022-11-22T02:13:33.032Z,1.32
2022-11-22T02:14:33.015Z,1.20
2022-11-22T02:15:33.048Z,1.08
2022-11-22T02:16:33.035Z,1.08
2022-11-22T02:17:33.006Z,1.11
2022-11-22T02:18:32.994Z,1.06
2022-11-22T02:19:33.000Z,1.09
2022-11-22T02:20:32.985Z,1.20
2022-11-22T02:21:32.964Z,1.14
2022-11-22T02:22:32.969Z,1.24
2022-11-22T02:23:32.953Z,1.26
2022-11-22T02:24:32.940Z,1.33
2022-11-22T02:25:32.939Z,1.47
2022-11-22T02:26:32.958Z,1.47
2022-11-22T02:27:32.948Z,1.37
2022-11-22T02:28:32.940Z,1.34
2022-11-22T02:29:32.977Z,1.18
2022-11-22T02:30:32.898Z,1.24
2022-11-22T02:31:32.894Z,1.24
2022-11-22T02:32:32.915Z,1.20
2022-11-22T02:33:32.880Z,1.32
2022-11-22T02:34:32.869Z,1.26
2022-11-22T02:35:32.875Z,1.20
2022-11-22T02:36:32.860Z,1.18
2022-11-22T02:37:32.859Z,1.14
2022-11-22T02:38:32.841Z,1.15
2022-11-22T02:39:33.016Z,1.12
2022-11-22T02:40:32.829Z,1.06
2022-11-22T02:41:32.823Z,1.08
2022-11-22T02:42:32.813Z,0.97
2022-11-22T02:43:32.812Z,1.12
2022-11-22T02:44:32.798Z,0.98
2022-11-22T02:45:32.794Z,0.93
2022-11-22T02:46:32.831Z,1.04
2022-11-22T02:47:32.778Z,0.91
2022-11-22T02:48:32.797Z,1.04
2022-11-22T02:49:33.126Z,1.11
2022-11-22T02:50:32.758Z,1.14
2022-11-22T02:51:32.750Z,1.16
2022-11-22T02:52:32.742Z,1.06
2022-11-22T02:53:32.735Z,1.18
2022-11-22T02:54:32.724Z,1.26
2022-11-22T02:55:32.717Z,1.27
2022-11-22T02:56:32.710Z,1.24
2022-11-22T02:57:32.715Z,1.23
2022-11-22T02:58:32.694Z,1.02
2022-11-22T02:59:32.782Z,1.08
2022-11-22T03:00:32.680Z,1.05
2022-11-22T03:01:32.777Z,1.20
2022-11-22T03:02:32.665Z,1.20
2022-11-22T03:03:32.688Z,1.24
2022-11-22T03:04:32.671Z,1.16
2022-11-22T03:05:32.649Z,1.22
2022-11-22T03:06:32.639Z,1.20
2022-11-22T03:07:32.677Z,1.18
2022-11-22T03:08:32.624Z,1.20
2022-11-22T03:09:32.910Z,1.23
2022-11-22T03:10:32.607Z,1.32
2022-11-22T03:11:32.604Z,1.29
2022-11-22T03:12:32.595Z,1.16
2022-11-22T03:13:32.591Z,1.23
2022-11-22T03:14:32.576Z,1.24
2022-11-22T03:15:32.575Z,1.20
2022-11-22T03:16:32.563Z,1.16
2022-11-22T03:17:32.558Z,1.26
2022-11-22T03:18:32.549Z,1.23
2022-11-22T03:19:32.879Z,1.18
2022-11-22T03:20:32.557Z,1.16
2022-11-22T03:21:32.527Z,1.23
2022-11-22T03:22:32.520Z,1.23
2022-11-22T03:23:32.520Z,1.26
2022-11-22T03:24:32.507Z,1.29
2022-11-22T03:25:32.500Z,1.20
2022-11-22T03:26:32.489Z,1.24
2022-11-22T03:27:32.487Z,1.22
2022-11-22T03:28:32.476Z,1.08
2022-11-22T03:29:32.712Z,1.23
2022-11-22T03:30:32.465Z,1.27
2022-11-22T03:31:32.456Z,1.20
2022-11-22T03:32:32.447Z,1.18
2022-11-22T03:33:32.450Z,1.23
2022-11-22T03:34:32.434Z,1.06
2022-11-22T03:35:32.439Z,1.18
2022-11-22T03:36:32.437Z,1.16
2022-11-22T03:37:32.416Z,1.06
2022-11-22T03:38:32.408Z,1.20
2022-11-22T03:39:32.652Z,1.26
2022-11-22T03:40:32.386Z,1.33
2022-11-22T03:41:32.383Z,1.33
2022-11-22T03:42:32.379Z,1.32
2022-11-22T03:43:32.368Z,1.33
2022-11-22T03:44:32.358Z,1.33
2022-11-22T03:45:32.352Z,1.40
2022-11-22T03:46:32.368Z,1.32
2022-11-22T03:47:32.346Z,1.18
2022-11-22T03:48:32.335Z,1.34
2022-11-22T03:49:32.807Z,1.34
2022-11-22T03:50:32.330Z,1.44
2022-11-22T03:51:32.316Z,1.44
2022-11-22T03:52:32.365Z,1.40
2022-11-22T03:53:32.296Z,1.37
2022-11-22T03:54:32.285Z,1.23
2022-11-22T03:55:32.284Z,1.32
2022-11-22T03:56:32.272Z,1.24
2022-11-22T03:57:32.269Z,1.32
2022-11-22T03:58:32.258Z,1.30
2022-11-22T03:59:32.410Z,1.45
2022-11-22T04:00:32.241Z,1.37
2022-11-22T04:01:32.300Z,1.30
2022-11-22T04:02:32.231Z,1.34
2022-11-22T04:03:32.221Z,1.34
2022-11-22T04:04:32.217Z,1.34
2022-11-22T04:05:32.204Z,1.44
2022-11-22T04:06:32.211Z,1.29
2022-11-22T04:07:32.222Z,1.40
2022-11-22T04:08:32.322Z,1.34
2022-11-22T04:09:32.566Z,1.33
2022-11-22T04:10:32.175Z,1.33
2022-11-22T04:11:32.166Z,1.36
2022-11-22T04:12:32.155Z,1.44
2022-11-22T04:13:32.147Z,1.32
2022-11-22T04:14:32.146Z,1.42
2022-11-22T04:15:32.135Z,1.40
2022-11-22T04:16:32.126Z,1.40
2022-11-22T04:17:32.119Z,1.55
2022-11-22T04:18:32.112Z,1.47
2022-11-22T04:19:32.396Z,1.47
2022-11-22T04:20:32.102Z,1.42
2022-11-22T04:21:32.091Z,1.33
2022-11-22T04:22:32.086Z,1.48
2022-11-22T04:23:34.306Z,1.51
2022-11-22T04:24:32.093Z,1.40
2022-11-22T04:25:32.057Z,1.44
2022-11-22T04:26:32.053Z,1.34
2022-11-22T04:27:32.044Z,1.29
2022-11-22T04:28:53.973Z,1.44
2022-11-22T04:29:32.449Z,1.48
2022-11-22T04:30:32.027Z,1.48
2022-11-22T04:31:32.021Z,1.50
2022-11-22T04:32:32.021Z,1.29
2022-11-22T04:33:32.007Z,1.41
2022-11-22T04:34:31.997Z,1.51
2022-11-22T04:35:31.996Z,1.63
2022-11-22T04:36:31.983Z,1.58
2022-11-22T04:37:31.976Z,1.51
2022-11-22T04:38:31.973Z,1.52
2022-11-22T04:39:32.269Z,1.59
2022-11-22T04:40:31.975Z,1.52
2022-11-22T04:41:31.943Z,1.54
2022-11-22T04:42:31.940Z,1.55
2022-11-22T04:43:31.935Z,1.59
2022-11-22T04:44:31.927Z,1.62
2022-11-22T04:45:31.915Z,1.55
2022-11-22T04:46:31.913Z,1.58
2022-11-22T04:47:31.908Z,1.60
2022-11-22T04:48:31.897Z,1.51
2022-11-22T04:49:32.248Z,1.52
2022-11-22T04:50:31.881Z,1.62
2022-11-22T04:51:31.874Z,1.65
2022-11-22T04:52:31.869Z,1.62
2022-11-22T04:53:31.859Z,1.66
2022-11-22T04:54:31.853Z,1.65
2022-11-22T04:55:31.843Z,1.52
2022-11-22T04:56:31.859Z,1.51
2022-11-22T04:57:31.827Z,1.51
2022-11-22T04:58:31.833Z,1.59
2022-11-22T04:59:32.285Z,1.63
2022-11-22T05:00:31.813Z,1.62
2022-11-22T05:01:31.872Z,1.66
2022-11-22T05:02:31.795Z,1.66
2022-11-22T05:03:31.789Z,1.62
2022-11-22T05:04:31.783Z,1.68
2022-11-22T05:05:31.768Z,1.68
2022-11-22T05:06:31.769Z,1.81
2022-11-22T05:07:31.790Z,1.52
2022-11-22T05:08:31.750Z,1.54
2022-11-22T05:09:32.030Z,1.62
2022-11-22T05:10:31.734Z,1.65
2022-11-22T05:11:31.733Z,1.59
2022-11-22T05:12:31.747Z,1.55
2022-11-22T05:13:31.714Z,1.51
2022-11-22T05:14:31.710Z,1.65
2022-11-22T05:15:31.699Z,1.66
2022-11-22T05:16:31.696Z,1.62
2022-11-22T05:17:31.682Z,1.62
2022-11-22T05:18:31.679Z,1.65
2022-11-22T05:19:32.048Z,1.54
2022-11-22T05:20:31.671Z,1.69
2022-11-22T05:21:31.656Z,1.59
2022-11-22T05:22:31.652Z,1.69
2022-11-22T05:23:31.643Z,1.83
2022-11-22T05:24:31.638Z,1.70
2022-11-22T05:25:31.627Z,1.90
2022-11-22T05:26:31.625Z,1.76
2022-11-22T05:27:31.616Z,1.73
2022-11-22T05:28:31.637Z,1.79
2022-11-22T05:29:31.940Z,1.79
2022-11-22T05:30:31.595Z,1.79
2022-11-22T05:31:31.591Z,1.80
2022-11-22T05:32:31.585Z,1.79
2022-11-22T05:33:31.584Z,1.86
2022-11-22T05:34:31.565Z,1.79
2022-11-22T05:35:31.555Z,1.79
2022-11-22T05:36:31.551Z,1.77
2022-11-22T05:37:31.544Z,1.81
2022-11-22T05:38:31.536Z,1.81
2022-11-22T05:39:31.928Z,1.90
2022-11-22T05:40:31.521Z,1.88
2022-11-22T05:41:31.518Z,1.72
2022-11-22T05:42:31.506Z,1.88
2022-11-22T05:43:31.500Z,1.87
2022-11-22T05:44:31.535Z,1.90
2022-11-22T05:45:31.486Z,1.87
2022-11-22T05:46:31.485Z,1.84
2022-11-22T05:47:31.472Z,1.87
2022-11-22T05:48:31.467Z,1.90
2022-11-22T05:49:31.758Z,1.84
2022-11-22T05:50:31.456Z,1.86
2022-11-22T05:51:34.419Z,1.87
2022-11-22T05:52:31.440Z,1.95
2022-11-22T05:53:31.434Z,2.05
2022-11-22T05:54:31.424Z,1.99
2022-11-22T05:55:31.413Z,2.02
2022-11-22T05:56:31.414Z,2.02
2022-11-22T05:57:31.407Z,2.16
2022-11-22T05:58:31.400Z,2.18
2022-11-22T05:59:31.834Z,2.17
2022-11-22T06:00:31.408Z,2.07
2022-11-22T06:01:31.374Z,2.09
2022-11-22T06:02:31.496Z,2.03
2022-11-22T06:03:31.354Z,2.07
2022-11-22T06:04:31.358Z,2.12
2022-11-22T06:05:31.349Z,2.16
2022-11-22T06:06:31.344Z,2.20
2022-11-22T06:07:31.438Z,2.09
2022-11-22T06:08:31.327Z,2.16
2022-11-22T06:09:31.709Z,2.18
2022-11-22T06:10:31.321Z,2.16
2022-11-22T06:11:31.300Z,2.27
2022-11-22T06:12:31.299Z,2.17
2022-11-22T06:13:31.289Z,2.16
2022-11-22T06:14:31.288Z,2.24
2022-11-22T06:15:31.274Z,2.23
2022-11-22T06:16:31.298Z,2.16
2022-11-22T06:17:31.265Z,2.02
2022-11-22T06:18:31.260Z,2.16
2022-11-22T06:19:31.625Z,2.20
2022-11-22T06:20:31.240Z,2.03
2022-11-22T06:21:31.229Z,2.09
2022-11-22T06:22:31.234Z,2.02
2022-11-22T06:23:31.223Z,2.16
2022-11-22T06:24:31.215Z,2.10
2022-11-22T06:25:31.203Z,2.14
2022-11-22T06:26:34.779Z,2.14
2022-11-22T06:27:31.192Z,2.21
2022-11-22T06:28:31.188Z,2.17
2022-11-22T06:29:31.549Z,2.30
2022-11-22T06:30:31.173Z,2.34
2022-11-22T06:31:31.165Z,2.20
2022-11-22T06:32:31.179Z,2.30
2022-11-22T06:33:31.153Z,2.25
2022-11-22T06:34:31.155Z,2.35
2022-11-22T06:35:31.136Z,2.38
2022-11-22T06:36:31.140Z,2.42
2022-11-22T06:37:31.124Z,2.27
2022-11-22T06:38:31.125Z,2.35
2022-11-22T06:39:31.512Z,2.18
2022-11-22T06:40:31.104Z,2.34
2022-11-22T06:41:31.103Z,2.38
2022-11-22T06:42:31.093Z,2.38
2022-11-22T06:43:31.083Z,2.49
2022-11-22T06:44:31.080Z,2.41
2022-11-22T06:45:31.068Z,2.31
2022-11-22T06:46:31.064Z,2.41
2022-11-22T06:47:31.057Z,2.31
2022-11-22T06:48:31.068Z,2.21
2022-11-22T06:49:31.377Z,2.28
2022-11-22T06:50:31.033Z,2.30
2022-11-22T06:51:31.023Z,2.31
2022-11-22T06:52:31.023Z,2.35
2022-11-22T06:53:46.750Z,2.39
2022-11-22T06:54:31.013Z,2.17
2022-11-22T06:55:49.674Z,2.39
2022-11-22T06:56:30.993Z,2.30
2022-11-22T06:57:30.993Z,2.27
2022-11-22T06:58:30.985Z,2.25
2022-11-22T06:59:31.385Z,2.28
2022-11-22T07:00:30.966Z,2.35
2022-11-22T07:01:31.128Z,2.18
2022-11-22T07:02:30.954Z,2.35
2022-11-22T07:03:30.944Z,2.30
2022-11-22T07:04:30.982Z,2.38
2022-11-22T07:05:30.932Z,2.42
2022-11-22T07:06:31.020Z,2.52
2022-11-22T07:07:30.981Z,2.49
2022-11-22T07:08:30.913Z,2.56
2022-11-22T07:09:31.239Z,2.41
2022-11-22T07:10:30.898Z,2.31
2022-11-22T07:11:30.914Z,2.48
2022-11-22T07:12:30.893Z,2.53
2022-11-22T07:13:30.878Z,2.36
2022-11-22T07:14:30.874Z,2.43
2022-11-22T07:15:30.866Z,2.49
2022-11-22T07:16:30.863Z,2.41
2022-11-22T07:17:30.847Z,2.59
2022-11-22T07:18:30.848Z,2.54
2022-11-22T07:19:31.041Z,2.57
2022-11-22T07:20:30.853Z,2.56
2022-11-22T07:21:30.820Z,2.57
2022-11-22T07:22:30.820Z,2.48
2022-11-22T07:23:30.808Z,2.63
2022-11-22T07:24:30.810Z,2.43
2022-11-22T07:25:30.795Z,2.53
2022-11-22T07:26:30.791Z,2.77
2022-11-22T07:27:30.783Z,2.67
2022-11-22T07:28:30.781Z,2.67
2022-11-22T07:29:31.065Z,2.79
2022-11-22T07:30:30.764Z,2.79
2022-11-22T07:31:30.753Z,2.95
2022-11-22T07:32:30.752Z,2.82
2022-11-22T07:33:30.743Z,2.95
2022-11-22T07:34:30.737Z,2.77
2022-11-22T07:35:30.730Z,2.78
2022-11-22T07:36:30.746Z,2.77
2022-11-22T07:37:30.715Z,2.79
2022-11-22T07:38:30.711Z,2.79
2022-11-22T07:39:31.031Z,2.75
2022-11-22T07:40:30.701Z,2.59
2022-11-22T07:41:30.691Z,2.63
2022-11-22T07:42:30.681Z,2.72
2022-11-22T07:43:30.678Z,2.75
2022-11-22T07:44:30.673Z,2.82
2022-11-22T07:45:30.664Z,2.78
2022-11-22T07:46:30.657Z,2.84
2022-11-22T07:47:30.650Z,2.74
2022-11-22T07:48:30.646Z,2.84
2022-11-22T07:49:30.999Z,2.84
2022-11-22T07:50:30.630Z,2.79
2022-11-22T07:51:30.625Z,2.84
2022-11-22T07:52:30.646Z,2.75
2022-11-22T07:53:30.607Z,2.66
2022-11-22T07:54:30.605Z,2.75
2022-11-22T07:55:30.598Z,2.79
2022-11-22T07:56:30.595Z,2.84
2022-11-22T07:57:30.593Z,2.75
2022-11-22T07:58:30.579Z,2.77
2022-11-22T07:59:30.953Z,2.81
2022-11-22T08:00:30.586Z,2.87
2022-11-22T08:01:30.620Z,2.82
2022-11-22T08:02:30.554Z,2.84
2022-11-22T08:03:30.549Z,2.75
2022-11-22T08:04:30.540Z,2.92
2022-11-22T08:05:30.525Z,2.97
2022-11-22T08:06:30.528Z,2.82
2022-11-22T08:07:30.571Z,2.87
2022-11-22T08:08:30.644Z,2.92
2022-11-22T08:09:30.934Z,2.95
2022-11-22T08:10:30.504Z,2.93
2022-11-22T08:11:30.496Z,2.95
2022-11-22T08:12:30.488Z,3.00
2022-11-22T08:13:30.480Z,3.18
2022-11-22T08:14:30.475Z,3.15
2022-11-22T08:15:30.473Z,3.14
2022-11-22T08:16:30.479Z,3.00
2022-11-22T08:17:30.458Z,2.99
2022-11-22T08:18:30.454Z,2.96
2022-11-22T08:19:30.622Z,2.96
2022-11-22T08:20:30.439Z,3.10
2022-11-22T08:21:30.430Z,2.97
2022-11-22T08:22:30.422Z,2.96
2022-11-22T08:23:30.415Z,2.95
2022-11-22T08:24:30.528Z,2.95
2022-11-22T08:25:30.407Z,2.97
2022-11-22T08:26:30.396Z,2.95
2022-11-22T08:27:30.394Z,2.96
2022-11-22T08:28:30.386Z,2.90
2022-11-22T08:29:30.682Z,2.96
2022-11-22T08:30:30.368Z,3.13
2022-11-22T08:31:30.370Z,3.15
2022-11-22T08:32:30.357Z,3.10
2022-11-22T08:33:30.355Z,3.10
2022-11-22T08:34:30.341Z,2.93
2022-11-22T08:35:30.342Z,3.00
2022-11-22T08:36:30.333Z,2.93
2022-11-22T08:37:30.330Z,3.02
2022-11-22T08:38:30.323Z,2.90
2022-11-22T08:39:30.614Z,2.97
2022-11-22T08:40:30.429Z,2.99
2022-11-22T08:41:30.299Z,2.99
2022-11-22T08:42:30.292Z,2.97
2022-11-22T08:43:30.288Z,3.00
2022-11-22T08:44:30.282Z,2.97
2022-11-22T08:45:30.277Z,3.15
2022-11-22T08:46:30.277Z,3.14
2022-11-22T08:47:30.266Z,2.99
2022-11-22T08:48:30.258Z,3.13
2022-11-22T08:49:30.589Z,3.03
2022-11-22T08:52:13.533Z,3.23
2022-11-22T08:53:13.532Z,3.31
2022-11-22T08:54:13.518Z,3.23
2022-11-22T08:55:13.516Z,3.15
2022-11-22T08:56:13.628Z,3.17
2022-11-22T08:57:13.506Z,3.18
2022-11-22T08:58:13.494Z,3.17
2022-11-22T08:59:13.695Z,3.15
2022-11-22T09:00:13.483Z,3.14
2022-11-22T09:01:13.704Z,3.21
2022-11-22T09:02:13.473Z,3.23
2022-11-22T09:03:13.470Z,3.42
2022-11-22T09:04:13.461Z,3.18
2022-11-22T09:05:13.459Z,3.28
2022-11-22T09:08:31.280Z,3.23
2022-11-22T09:10:13.418Z,3.39
2022-11-22T09:11:13.421Z,3.39
2022-11-22T09:12:13.535Z,3.48
2022-11-22T09:13:13.407Z,3.45
2022-11-22T09:14:13.396Z,3.57
2022-11-22T09:15:13.397Z,3.39
2022-11-22T09:16:13.387Z,3.43
2022-11-22T09:17:17.776Z,3.47
2022-11-22T09:18:13.373Z,3.31
2022-11-22T09:19:13.368Z,3.32
2022-11-22T09:20:13.357Z,3.23
2022-11-22T09:21:13.356Z,3.43
2022-11-22T09:22:13.346Z,3.42
2022-11-22T09:23:13.341Z,3.50
2022-11-22T09:24:13.332Z,3.57
2022-11-22T09:25:13.331Z,3.69
2022-11-22T09:26:13.315Z,3.73
2022-11-22T09:27:13.319Z,3.62
2022-11-22T09:28:13.455Z,3.75
2022-11-22T09:29:13.310Z,3.68
2022-11-22T09:30:13.296Z,3.76
2022-11-22T09:31:13.291Z,3.88
2022-11-22T09:32:13.283Z,3.97
2022-11-22T09:33:13.283Z,3.96
2022-11-22T09:34:13.272Z,3.93
2022-11-22T09:35:13.265Z,3.90
2022-11-22T09:36:13.263Z,3.83
2022-11-22T09:37:13.257Z,3.78
2022-11-22T09:38:13.252Z,3.86
2022-11-22T09:39:13.243Z,3.87
2022-11-22T09:40:13.236Z,3.98
2022-11-22T09:41:13.236Z,4.08
2022-11-22T09:42:13.228Z,4.09
2022-11-22T09:43:13.224Z,4.14
2022-11-22T09:44:13.345Z,4.09
2022-11-22T09:45:13.212Z,4.12
2022-11-22T09:46:13.201Z,4.06
2022-11-22T09:47:13.192Z,3.98
2022-11-22T09:48:13.187Z,4.02
2022-11-22T09:49:13.184Z,4.04
2022-11-22T09:50:13.176Z,3.97
2022-11-22T09:51:13.171Z,4.06
2022-11-22T09:52:13.484Z,3.86
2022-11-22T09:53:13.162Z,3.88
2022-11-22T09:54:13.158Z,3.86
2022-11-22T09:55:13.146Z,3.80
2022-11-22T09:56:13.192Z,3.58
2022-11-22T09:57:13.135Z,3.62
2022-11-22T09:58:13.125Z,3.69
2022-11-22T09:59:13.128Z,3.75
2022-11-22T10:00:13.242Z,3.88
2022-11-22T10:01:13.221Z,4.02
2022-11-22T10:02:18.716Z,3.69
2022-11-22T10:03:13.099Z,3.58
2022-11-22T10:04:13.100Z,3.69
2022-11-22T10:05:13.089Z,3.73
2022-11-22T10:06:13.079Z,3.87
2022-11-22T10:07:13.129Z,3.93
2022-11-22T10:08:13.069Z,4.02
2022-11-22T10:09:13.066Z,3.98
2022-11-22T10:10:13.055Z,4.05
2022-11-22T10:11:13.053Z,4.05
2022-11-22T10:12:13.048Z,4.09
2022-11-22T10:13:13.049Z,4.18
2022-11-22T10:14:13.032Z,4.08
2022-11-22T10:15:13.036Z,3.91
2022-11-22T10:16:13.135Z,4.08
2022-11-22T10:17:13.031Z,4.05
2022-11-22T10:18:13.008Z,4.15
2022-11-22T10:19:13.004Z,4.16
2022-11-22T10:20:13.001Z,4.14
2022-11-22T10:21:12.999Z,4.27
2022-11-22T10:22:12.985Z,4.33
2022-11-22T10:23:12.986Z,4.29
2022-11-22T10:24:12.983Z,4.30
2022-11-22T10:25:12.972Z,4.45
2022-11-22T10:26:12.960Z,4.44
2022-11-22T10:27:12.959Z,4.36
2022-11-22T10:28:12.947Z,4.51
2022-11-22T10:29:12.944Z,4.48
2022-11-22T10:30:12.939Z,4.54
2022-11-22T10:31:12.936Z,4.32
2022-11-22T10:32:13.042Z,4.27
2022-11-22T10:33:12.925Z,4.29
2022-11-22T10:34:12.914Z,4.32
2022-11-22T10:35:12.922Z,4.26
2022-11-22T10:36:12.911Z,4.29
2022-11-22T10:37:12.906Z,4.11
2022-11-22T10:38:12.890Z,4.29
2022-11-22T10:39:12.893Z,4.15
2022-11-22T10:40:44.969Z,4.12
2022-11-22T10:41:44.966Z,4.06
2022-11-22T10:42:44.964Z,4.11
2022-11-22T10:43:44.949Z,4.15
2022-11-22T10:44:44.942Z,4.30
2022-11-22T10:45:44.954Z,4.41
2022-11-22T10:46:44.935Z,4.24
2022-11-22T10:47:45.042Z,4.27
2022-11-22T10:48:44.923Z,4.41
2022-11-22T10:49:44.923Z,4.45
2022-11-22T10:50:44.908Z,4.59
2022-11-22T10:51:44.907Z,4.80
2022-11-22T10:52:44.897Z,4.70
2022-11-22T10:53:44.894Z,4.59
2022-11-22T10:54:44.887Z,4.58
2022-11-22T10:55:44.886Z,4.51
2022-11-22T10:56:44.877Z,4.50
2022-11-22T10:57:44.877Z,4.33
2022-11-22T10:58:44.869Z,4.34
2022-11-22T10:59:44.863Z,4.40
2022-11-22T11:00:44.909Z,4.47
2022-11-22T11:01:44.936Z,4.55
2022-11-22T11:02:44.849Z,4.55
2022-11-22T11:03:44.952Z,4.63
2022-11-22T11:04:44.830Z,4.70
2022-11-22T11:06:15.166Z,4.48
2022-11-22T11:07:13.294Z,4.45
2022-11-22T11:07:44.869Z,4.50
2022-11-22T11:10:44.887Z,4.73
2022-11-22T11:11:44.801Z,4.69
2022-11-22T11:12:44.783Z,4.73
2022-11-22T11:13:44.782Z,4.59
2022-11-22T11:14:44.775Z,4.55
2022-11-22T11:15:44.789Z,4.62
2022-11-22T11:16:44.767Z,4.65
2022-11-22T11:17:44.816Z,4.60
2022-11-22T11:18:44.761Z,4.60
2022-11-22T11:19:44.864Z,4.67
2022-11-22T11:20:44.739Z,4.47
2022-11-22T11:21:44.747Z,4.59
2022-11-22T11:23:13.117Z,4.63
2022-11-22T11:23:44.729Z,4.59
2022-11-22T11:24:44.720Z,4.62
2022-11-22T11:25:44.739Z,4.72
2022-11-22T11:26:44.707Z,4.70
2022-11-22T11:27:44.708Z,4.59
2022-11-22T11:28:44.705Z,4.54
2022-11-22T11:29:44.701Z,4.55
2022-11-22T11:30:44.681Z,4.58
2022-11-22T11:31:44.694Z,4.59
2022-11-22T11:32:44.676Z,4.60
2022-11-22T11:33:44.675Z,4.67
2022-11-22T11:34:44.664Z,4.78
2022-11-22T11:35:44.796Z,4.85
2022-11-22T11:36:44.658Z,4.72
2022-11-22T11:37:44.651Z,4.67
2022-11-22T11:38:44.646Z,4.73
2022-11-22T11:39:44.921Z,4.55
2022-11-22T11:40:44.628Z,4.73
2022-11-22T11:41:44.628Z,4.91
2022-11-22T11:42:44.624Z,4.86
2022-11-22T11:43:44.618Z,4.88
2022-11-22T11:44:44.613Z,5.07
2022-11-22T11:45:44.611Z,5.03
2022-11-22T11:46:44.605Z,5.00
2022-11-22T11:47:44.598Z,4.91
2022-11-22T11:48:44.590Z,4.99
2022-11-22T11:49:44.585Z,5.13
2022-11-22T11:50:44.576Z,5.24
2022-11-22T11:51:44.689Z,5.24
2022-11-22T11:52:44.569Z,5.02
2022-11-22T11:53:44.566Z,5.00
2022-11-22T11:54:44.555Z,5.04
2022-11-22T11:55:44.557Z,5.09
2022-11-22T11:56:44.544Z,5.00
2022-11-22T11:57:44.540Z,5.00
2022-11-22T11:58:44.547Z,4.99
2022-11-22T11:59:44.535Z,4.96
2022-11-22T12:00:44.530Z,5.02
2022-11-22T12:01:44.521Z,4.85
2022-11-22T12:02:44.597Z,4.99
2022-11-22T12:03:44.517Z,5.15
2022-11-22T12:04:44.500Z,5.24
2022-11-22T12:05:44.504Z,5.24
2022-11-22T12:06:44.496Z,5.24
2022-11-22T12:07:44.823Z,5.10
2022-11-22T12:08:44.487Z,5.20
2022-11-22T12:09:44.481Z,5.10
2022-11-22T12:10:44.474Z,5.00
2022-11-22T12:11:44.469Z,4.91
2022-11-22T12:12:44.460Z,4.99
2022-11-22T12:14:12.309Z,4.89
2022-11-22T12:15:09.609Z,4.94
2022-11-22T12:15:44.458Z,5.02
2022-11-22T12:16:44.440Z,4.99
2022-11-22T12:17:44.439Z,5.15
2022-11-22T12:18:44.427Z,5.12
2022-11-22T12:19:44.425Z,5.09
2022-11-22T12:20:44.413Z,5.27
2022-11-22T12:21:44.414Z,5.18
2022-11-22T12:22:49.921Z,5.21
2022-11-22T12:23:50.563Z,5.12
2022-11-22T12:25:09.244Z,5.02
2022-11-22T12:25:44.395Z,4.96
2022-11-22T12:26:44.387Z,5.06
2022-11-22T12:27:44.382Z,5.25
2022-11-22T12:28:44.374Z,5.10
2022-11-22T12:29:44.377Z,5.17
2022-11-22T12:30:44.377Z,5.25
2022-11-22T12:31:44.362Z,5.25
2022-11-22T12:32:44.356Z,5.27
2022-11-22T12:33:44.350Z,5.17
2022-11-22T12:34:44.343Z,5.24
2022-11-22T12:35:44.368Z,5.12
2022-11-22T12:36:44.333Z,5.20
2022-11-22T12:37:44.331Z,5.18
2022-11-22T12:38:44.328Z,5.24
2022-11-22T12:39:44.445Z,5.25
2022-11-22T12:40:44.327Z,5.31
2022-11-22T12:41:44.318Z,5.25
2022-11-22T12:42:44.313Z,5.28
2022-11-22T12:43:44.304Z,5.31
2022-11-22T12:44:44.308Z,5.40
2022-11-22T12:45:44.292Z,5.39
2022-11-22T12:46:44.284Z,5.30
2022-11-22T12:47:44.278Z,5.33
2022-11-22T12:48:48.404Z,5.27
2022-11-22T12:49:44.268Z,5.35
2022-11-22T12:50:44.259Z,5.45
2022-11-22T12:51:44.262Z,5.43
2022-11-22T12:52:44.256Z,5.40
2022-11-22T12:53:44.253Z,5.40
2022-11-22T12:54:44.244Z,5.45
2022-11-22T12:55:44.353Z,5.30
2022-11-22T12:56:44.231Z,5.33
2022-11-22T12:57:44.228Z,5.18
2022-11-22T12:58:44.222Z,5.18
2022-11-22T12:59:44.220Z,5.10
2022-11-22T13:00:44.207Z,5.06
2022-11-22T13:01:44.292Z,5.15
2022-11-22T13:02:44.202Z,5.18
2022-11-22T13:03:44.197Z,5.18
2022-11-22T13:04:44.189Z,5.22
2022-11-22T13:05:44.186Z,5.28
2022-11-22T13:06:44.178Z,5.36
2022-11-22T13:07:44.308Z,5.35
2022-11-22T13:08:47.473Z,5.39
2022-11-22T13:09:44.168Z,5.42
2022-11-22T13:10:44.160Z,5.38
2022-11-22T13:11:44.288Z,5.28
2022-11-22T13:12:44.150Z,5.40
2022-11-22T13:13:44.156Z,5.33
2022-11-22T13:14:44.140Z,5.46
2022-11-22T13:15:44.140Z,5.24
2022-11-22T13:16:44.127Z,5.43
2022-11-22T13:17:44.126Z,5.40
2022-11-22T13:18:44.117Z,5.35
2022-11-22T13:19:46.811Z,5.39
2022-11-22T13:20:44.111Z,5.45
2022-11-22T13:21:44.112Z,5.31
2022-11-22T13:22:44.094Z,5.30
2022-11-22T13:23:44.092Z,5.40
2022-11-22T13:24:44.088Z,5.38
2022-11-22T13:25:44.086Z,5.45